Bedford, Massachusetts
Current Conditions -  °F | °C
As of 4:19 AM on Friday 24 Oct 2014 (Local Time) from KBED Reporting Station
Overcast Overcast  
Wind Chill:   Ceiling: 1700
Heat Index:   Visibility: 10mi
Dew Point:   Wind: 10mph
Humidity: 93%   Direction: 330°NNW
Pressure: 29.66"   Gusts: NA
Location:  42.49°N, 71.28°W
Report Text: KBED 240819Z AUTO 33009KT 10SM SCT008 OVC017 09/08 A2966 RMK AO2 RAE03 P0000 T00940083 TSNO
Loading
Personal Weather Stations






























Interactive Weather Map
Tropical Storm Tracking
New forecast layout! Learn more

10-Day Weather Forecast

Advertisements
Track Severe Weather on mobile